Time;durP1;ratioP1;P1;durP2;ratioP2;P2;SDS_P1;SDS_P2;PMS_P1;PMS_P2;Temp;Humidity;BMP_temperature;BMP_pressure;BME280_temperature;BME280_humidity;BME280_pressure;Samples;Min_cycle;Max_cycle;Signal;HPM_P1;HPM_P2
2022/01/19 00:02:23;;;;;;;4.65;2.72;;;5.10;72.10;;;;;;2367233;52;20983;-65
2022/01/19 00:04:49;;;;;;;5.20;2.50;;;5.10;72.00;;;;;;2367305;54;21858;-67
2022/01/19 00:07:16;;;;;;;5.40;2.87;;;5.10;71.90;;;;;;2347806;53;21424;-65
2022/01/19 00:09:42;;;;;;;6.97;2.72;;;5.10;72.00;;;;;;2438177;52;21546;-67
2022/01/19 00:12:08;;;;;;;5.43;2.95;;;5.10;71.90;;;;;;2352133;53;20920;-66
2022/01/19 00:14:35;;;;;;;5.28;2.90;;;5.10;72.00;;;;;;2388887;53;20940;-66
2022/01/19 00:17:07;;;;;;;6.32;3.35;;;5.00;71.90;;;;;;2368178;53;20920;-67
2022/01/19 00:19:34;;;;;;;4.45;2.70;;;5.00;72.00;;;;;;2367163;54;20951;-66
2022/01/19 00:22:01;;;;;;;6.57;2.80;;;5.00;72.00;;;;;;2367813;54;20940;-67
2022/01/19 00:24:27;;;;;;;7.68;3.30;;;5.10;72.10;;;;;;2344669;54;20904;-68
2022/01/19 00:26:53;;;;;;;4.70;2.45;;;5.00;71.90;;;;;;2344603;54;20921;-65
2022/01/19 00:29:20;;;;;;;5.15;2.40;;;5.00;71.90;;;;;;2346237;53;20922;-67
2022/01/19 00:31:46;;;;;;;4.90;2.50;;;5.00;71.90;;;;;;2466598;53;21358;-65
2022/01/19 00:34:13;;;;;;;6.12;3.15;;;5.00;71.90;;;;;;2343166;54;20919;-66
2022/01/19 00:36:40;;;;;;;6.28;3.22;;;5.00;71.90;;;;;;2341627;54;20946;-67
2022/01/19 00:39:06;;;;;;;7.85;3.50;;;5.00;71.90;;;;;;2337397;54;20940;-67
2022/01/19 00:41:33;;;;;;;8.57;3.67;;;5.00;71.90;;;;;;2340265;53;20932;-68
2022/01/19 00:43:59;;;;;;;7.35;3.53;;;5.00;71.90;;;;;;2476018;52;21002;-67
2022/01/19 00:46:25;;;;;;;7.22;3.70;;;5.00;71.90;;;;;;2344128;53;20954;-66
2022/01/19 00:48:51;;;;;;;5.47;3.20;;;5.00;71.80;;;;;;2340969;53;21766;-66
2022/01/19 00:51:18;;;;;;;7.85;4.00;;;5.00;71.90;;;;;;2344379;53;20937;-68
2022/01/19 00:53:44;;;;;;;10.52;4.85;;;5.00;71.80;;;;;;2344331;54;20947;-68
2022/01/19 00:56:11;;;;;;;10.70;4.97;;;4.90;71.80;;;;;;2343939;53;20990;-68
2022/01/19 00:58:40;;;;;;;9.48;4.25;;;5.00;71.90;;;;;;2361815;54;20938;-67
2022/01/19 01:01:06;;;;;;;5.97;3.25;;;5.00;71.90;;;;;;2372947;54;20993;-67
2022/01/19 01:03:32;;;;;;;5.28;2.85;;;4.90;71.70;;;;;;2372564;53;20940;-68
2022/01/19 01:05:59;;;;;;;7.07;2.85;;;4.90;71.60;;;;;;2372671;53;20979;-67
2022/01/19 01:08:25;;;;;;;4.20;2.40;;;4.90;71.40;;;;;;2372339;54;20937;-68
2022/01/19 01:10:51;;;;;;;4.65;2.53;;;4.90;71.20;;;;;;2372158;53;20988;-66
2022/01/19 01:15:23;;;;;;;5.10;2.67;;;4.90;71.00;;;;;;2372698;53;21424;-68
2022/01/19 01:23:48;;;;;;;5.32;2.40;;;4.80;70.50;;;;;;2374626;54;20942;-66
2022/01/19 01:26:16;;;;;;;5.65;2.55;;;4.70;70.10;;;;;;2352465;53;20967;-67
2022/01/19 01:28:43;;;;;;;4.82;2.45;;;4.70;70.10;;;;;;2368377;54;21021;-68
2022/01/19 01:31:09;;;;;;;4.87;2.35;;;4.60;70.10;;;;;;2624874;52;20925;-67
2022/01/19 01:33:38;;;;;;;5.87;2.83;;;4.60;70.20;;;;;;2364532;54;21099;-68
2022/01/19 01:36:05;;;;;;;5.37;2.20;;;4.50;70.00;;;;;;2357005;53;20961;-68
2022/01/19 01:38:32;;;;;;;4.20;2.17;;;4.50;70.00;;;;;;2370928;53;20981;-67
2022/01/19 01:41:13;;;;;;;4.47;2.10;;;4.40;69.90;;;;;;2625550;52;20966;-68
2022/01/19 01:43:39;;;;;;;6.82;2.37;;;4.40;69.90;;;;;;2352621;54;20981;-67
2022/01/19 01:46:16;;;;;;;4.40;2.17;;;4.30;69.80;;;;;;2338929;53;20984;-65
2022/01/19 01:48:46;;;;;;;5.53;2.45;;;4.30;69.90;;;;;;2360249;53;21430;-69
2022/01/19 01:53:57;;;;;;;6.25;2.90;;;4.20;70.00;;;;;;2371669;53;20938;-68
2022/01/19 01:56:23;;;;;;;6.82;3.05;;;4.20;70.10;;;;;;2372765;53;21859;-68
2022/01/19 01:58:49;;;;;;;6.50;3.22;;;4.10;70.40;;;;;;2372427;53;20929;-66
2022/01/19 02:01:17;;;;;;;6.25;3.20;;;4.10;70.70;;;;;;2369456;53;21012;-68
2022/01/19 02:03:44;;;;;;;5.62;3.10;;;4.10;70.90;;;;;;2374433;53;20965;-68
2022/01/19 02:09:16;;;;;;;6.40;3.25;;;4.10;71.20;;;;;;2352324;54;21390;-66
2022/01/19 02:23:49;;;;;;;5.15;2.58;;;4.00;70.20;;;;;;2344763;53;21485;-68
2022/01/19 02:26:26;;;;;;;4.37;2.45;;;4.00;70.20;;;;;;2344945;53;21001;-67
2022/01/19 02:29:16;;;;;;;4.43;2.12;;;3.90;70.10;;;;;;2368324;53;21002;-68
2022/01/19 02:36:35;;;;;;;5.05;2.40;;;3.90;70.00;;;;;;2419909;52;20953;-65
2022/01/19 02:41:46;;;;;;;5.05;2.20;;;3.80;69.50;;;;;;2375557;53;21561;-68
2022/01/19 02:44:27;;;;;;;4.65;2.35;;;3.70;69.50;;;;;;2372593;54;20918;-67
2022/01/19 02:49:37;;;;;;;5.95;2.95;;;3.50;69.60;;;;;;2443768;52;21824;-65
2022/01/19 02:52:04;;;;;;;7.25;3.05;;;3.60;69.80;;;;;;2372503;53;21006;-67
2022/01/19 02:54:31;;;;;;;7.25;3.05;;;3.50;69.90;;;;;;2372890;53;20985;-67
2022/01/19 02:57:00;;;;;;;6.20;3.30;;;3.50;70.00;;;;;;2349507;53;20935;-67
2022/01/19 03:10:40;;;;;;;11.63;3.70;;;3.40;70.20;;;;;;2371990;53;20954;-67
2022/01/19 03:13:07;;;;;;;7.07;3.72;;;3.40;70.30;;;;;;2375653;52;21052;-67
2022/01/19 03:15:33;;;;;;;7.97;3.60;;;3.30;70.50;;;;;;2356555;53;20969;-66
2022/01/19 03:18:02;;;;;;;7.15;3.15;;;3.30;70.70;;;;;;2372778;54;20990;-68
2022/01/19 03:20:29;;;;;;;6.12;2.92;;;3.30;70.80;;;;;;2372502;54;20989;-66
2022/01/19 03:23:03;;;;;;;6.37;3.17;;;3.40;70.80;;;;;;2372400;54;20978;-67
2022/01/19 03:25:30;;;;;;;7.68;3.72;;;3.30;70.60;;;;;;2368490;53;20929;-66
2022/01/19 03:27:56;;;;;;;9.43;3.83;;;3.30;70.60;;;;;;2598145;52;21695;-66
2022/01/19 03:30:22;;;;;;;6.72;3.95;;;3.30;70.60;;;;;;2371772;53;21407;-66
2022/01/19 03:32:49;;;;;;;7.47;3.95;;;3.30;70.50;;;;;;2360027;53;21040;-66
2022/01/19 03:35:15;;;;;;;8.20;3.62;;;3.30;70.50;;;;;;2433613;52;21012;-68
2022/01/19 03:37:41;;;;;;;7.03;4.03;;;3.30;70.40;;;;;;2358019;53;20957;-66
2022/01/19 03:40:08;;;;;;;7.80;4.07;;;3.30;70.40;;;;;;2372190;53;20982;-66
2022/01/19 03:42:35;;;;;;;9.43;3.60;;;3.20;70.20;;;;;;2352120;53;21471;-66
2022/01/19 03:45:02;;;;;;;7.43;4.00;;;3.20;70.20;;;;;;2369339;53;20996;-64
2022/01/19 03:47:31;;;;;;;6.62;3.65;;;3.20;70.30;;;;;;2546649;52;20937;-66
2022/01/19 03:49:58;;;;;;;7.43;3.58;;;3.20;70.30;;;;;;2372602;54;20997;-68
2022/01/19 03:52:24;;;;;;;9.25;3.42;;;3.20;70.30;;;;;;2372199;54;21006;-66
2022/01/19 03:54:50;;;;;;;8.75;3.78;;;3.10;70.20;;;;;;2364369;53;20980;-67
2022/01/19 03:57:16;;;;;;;6.20;3.47;;;3.10;71.00;;;;;;2358615;53;21737;-66
2022/01/19 03:59:43;;;;;;;7.85;3.72;;;3.10;70.40;;;;;;2373443;53;20945;-65
2022/01/19 04:02:09;;;;;;;6.10;3.03;;;3.10;70.60;;;;;;2351297;53;20942;-67
2022/01/19 04:05:00;;;;;;;8.20;3.90;;;3.10;70.60;;;;;;2361377;53;20952;-67
2022/01/19 04:07:30;;;;;;;8.65;3.40;;;3.10;70.50;;;;;;2336391;54;21499;-66
2022/01/19 04:09:57;;;;;;;8.77;3.50;;;3.10;70.30;;;;;;2372213;53;20962;-68
2022/01/19 04:12:52;;;;;;;8.30;3.50;;;3.10;70.40;;;;;;2372673;53;21502;-67
2022/01/19 04:15:20;;;;;;;7.43;3.42;;;3.10;70.60;;;;;;2372465;53;20997;-67
2022/01/19 04:17:53;;;;;;;9.40;3.62;;;3.00;70.60;;;;;;2418845;52;20989;-69
2022/01/19 04:20:22;;;;;;;8.27;4.43;;;3.10;70.70;;;;;;2369114;53;20966;-67
2022/01/19 04:22:58;;;;;;;7.12;3.72;;;3.00;70.70;;;;;;2359459;53;21532;-68
2022/01/19 04:25:24;;;;;;;10.32;3.90;;;3.00;70.70;;;;;;2364617;53;21029;-67
2022/01/19 04:27:50;;;;;;;8.45;3.42;;;3.00;70.70;;;;;;2367349;53;20937;-67
2022/01/19 04:30:17;;;;;;;6.95;3.58;;;3.00;70.70;;;;;;2358011;53;20962;-66
2022/01/19 04:33:10;;;;;;;7.70;3.70;;;3.00;70.60;;;;;;2372140;53;21004;-68
2022/01/19 04:35:47;;;;;;;6.32;3.20;;;3.00;70.60;;;;;;2372322;53;21081;-65
2022/01/19 04:39:07;;;;;;;8.65;3.50;;;3.00;70.40;;;;;;2410624;52;20934;-65
2022/01/19 04:44:54;;;;;;;6.50;3.05;;;3.00;70.20;;;;;;2371923;53;21017;-68
2022/01/19 05:04:06;;;;;;;7.72;3.47;;;2.70;69.80;;;;;;2344551;54;20949;-68
2022/01/19 05:06:36;;;;;;;6.30;3.62;;;2.70;70.10;;;;;;2339874;54;20992;-68
2022/01/19 05:15:43;;;;;;;9.25;4.28;;;2.70;70.50;;;;;;2347557;54;21380;-67
2022/01/19 05:18:09;;;;;;;10.85;4.10;;;2.70;70.50;;;;;;2321950;53;20927;-68
2022/01/19 05:20:35;;;;;;;8.23;4.32;;;2.70;70.60;;;;;;2343666;54;20958;-67
2022/01/19 05:23:02;;;;;;;8.13;4.32;;;2.70;70.70;;;;;;2458498;53;1333976;-68
2022/01/19 05:25:31;;;;;;;8.75;4.40;;;2.60;70.70;;;;;;2400141;53;20985;-66
2022/01/19 05:27:57;;;;;;;10.27;4.93;;;2.60;70.70;;;;;;2344085;53;20946;-69
2022/01/19 05:30:24;;;;;;;10.35;4.00;;;2.60;70.60;;;;;;2352860;54;21110;-66
2022/01/19 05:32:50;;;;;;;8.02;3.97;;;2.60;70.50;;;;;;2373415;53;21037;-69
2022/01/19 05:35:17;;;;;;;9.10;4.75;;;2.60;70.40;;;;;;2350489;53;20922;-68
2022/01/19 05:37:43;;;;;;;9.75;4.43;;;2.60;70.30;;;;;;2527118;52;20946;-66
2022/01/19 05:40:10;;;;;;;9.52;4.18;;;2.60;70.20;;;;;;2348250;52;20950;-67
2022/01/19 05:42:39;;;;;;;10.90;4.65;;;2.60;70.10;;;;;;2359642;53;21024;-70
2022/01/19 05:45:05;;;;;;;10.48;5.05;;;2.50;70.00;;;;;;2352458;53;20934;-66
2022/01/19 05:47:32;;;;;;;7.95;4.15;;;2.50;70.10;;;;;;2372336;53;22489;-67
2022/01/19 05:49:59;;;;;;;8.10;3.72;;;2.50;70.00;;;;;;2595205;52;21427;-66
2022/01/19 05:52:25;;;;;;;10.43;4.35;;;2.50;70.00;;;;;;2372373;53;20954;-68
2022/01/19 05:54:51;;;;;;;9.50;4.22;;;2.50;70.20;;;;;;2351401;53;20945;-68
2022/01/19 05:57:17;;;;;;;7.25;3.72;;;2.50;70.40;;;;;;2349523;53;20949;-66
2022/01/19 05:59:44;;;;;;;10.05;3.83;;;2.50;70.60;;;;;;2372538;54;20914;-68
2022/01/19 06:02:11;;;;;;;8.60;3.70;;;2.50;70.80;;;;;;2458853;52;20965;-69
2022/01/19 06:04:37;;;;;;;7.93;3.97;;;2.40;70.90;;;;;;2428350;52;20977;-66
2022/01/19 06:07:04;;;;;;;6.50;3.42;;;2.50;71.00;;;;;;2407952;52;21385;-70
2022/01/19 06:12:29;;;;;;;8.50;3.35;;;2.50;71.00;;;;;;2360484;53;20988;-66
2022/01/19 06:14:55;;;;;;;11.85;4.90;;;2.50;70.90;;;;;;2362259;53;21005;-69
2022/01/19 06:17:22;;;;;;;10.75;5.03;;;2.50;71.60;;;;;;2373217;53;20970;-69
2022/01/19 06:19:49;;;;;;;9.85;4.95;;;2.50;71.00;;;;;;2371618;54;20937;-67
2022/01/19 06:22:17;;;;;;;11.88;4.47;;;2.50;71.00;;;;;;2372341;54;20990;-68
2022/01/19 06:24:44;;;;;;;10.52;5.00;;;2.50;71.20;;;;;;2371861;54;20970;-69
2022/01/19 06:27:11;;;;;;;10.63;5.20;;;2.60;71.40;;;;;;2398066;52;21427;-69
2022/01/19 06:29:37;;;;;;;11.23;5.05;;;2.60;71.50;;;;;;2372551;54;21335;-67
2022/01/19 06:32:04;;;;;;;12.00;5.00;;;2.60;71.50;;;;;;2371786;54;21753;-66
2022/01/19 06:34:30;;;;;;;8.90;4.90;;;2.60;71.50;;;;;;2434307;52;21506;-68
2022/01/19 06:36:56;;;;;;;11.32;4.75;;;2.60;71.60;;;;;;2371593;53;21584;-69
2022/01/19 06:39:22;;;;;;;10.27;4.25;;;2.60;71.70;;;;;;2371415;53;21455;-68
2022/01/19 06:41:50;;;;;;;7.12;3.72;;;2.60;71.70;;;;;;2371273;54;20962;-70
2022/01/19 06:44:19;;;;;;;8.63;4.40;;;2.60;71.70;;;;;;2372299;54;20950;-68
2022/01/19 06:46:45;;;;;;;7.65;3.50;;;2.70;71.80;;;;;;2483434;53;20962;-69
2022/01/19 06:49:12;;;;;;;7.90;3.50;;;2.70;71.80;;;;;;2391770;52;20945;-68
2022/01/19 06:51:38;;;;;;;9.23;4.75;;;2.70;71.80;;;;;;2371511;54;20968;-66
2022/01/19 06:54:05;;;;;;;9.90;4.70;;;2.70;71.80;;;;;;2372172;54;20953;-68
2022/01/19 06:56:36;;;;;;;13.77;5.62;;;2.70;71.80;;;;;;2372498;54;20946;-65
2022/01/19 06:59:02;;;;;;;13.40;5.83;;;2.70;71.80;;;;;;2372685;54;20993;-66
2022/01/19 07:01:32;;;;;;;9.80;5.20;;;2.70;71.60;;;;;;2371505;53;20982;-66
2022/01/19 07:03:59;;;;;;;8.38;4.45;;;2.80;71.60;;;;;;2368378;52;21616;-67
2022/01/19 07:06:26;;;;;;;9.27;4.07;;;2.70;71.40;;;;;;2403780;52;20949;-66
2022/01/19 07:08:52;;;;;;;9.60;4.80;;;2.80;71.40;;;;;;2424761;53;21035;-67
2022/01/19 07:11:20;;;;;;;10.07;5.12;;;2.80;71.40;;;;;;2364545;53;21455;-68
2022/01/19 07:13:46;;;;;;;11.63;5.95;;;2.80;71.40;;;;;;2372363;53;20902;-68
2022/01/19 07:16:12;;;;;;;12.10;5.50;;;2.80;71.50;;;;;;2372323;54;20929;-69
2022/01/19 07:18:39;;;;;;;13.15;6.07;;;2.80;71.40;;;;;;2372135;53;21017;-68
2022/01/19 07:21:05;;;;;;;13.52;5.22;;;2.80;71.40;;;;;;2372404;54;21430;-70
2022/01/19 07:23:31;;;;;;;12.57;5.97;;;2.80;71.30;;;;;;2370922;54;20981;-69
2022/01/19 07:25:58;;;;;;;10.82;5.25;;;2.80;71.20;;;;;;2354220;53;20934;-69
2022/01/19 07:28:24;;;;;;;12.68;6.28;;;2.80;71.10;;;;;;2360760;53;21012;-66
2022/01/19 07:30:52;;;;;;;12.63;5.68;;;2.80;71.10;;;;;;2365212;53;20969;-69
2022/01/19 07:33:18;;;;;;;12.10;5.57;;;2.80;71.10;;;;;;2419916;52;21736;-68
2022/01/19 07:35:45;;;;;;;8.80;4.25;;;2.80;71.00;;;;;;2482653;53;20957;-67
2022/01/19 07:38:14;;;;;;;9.13;4.37;;;2.80;70.90;;;;;;2371814;53;21005;-67
2022/01/19 07:40:40;;;;;;;7.90;4.10;;;2.80;70.80;;;;;;2371635;54;20942;-67
2022/01/19 07:43:07;;;;;;;8.05;4.07;;;2.80;70.80;;;;;;2624562;52;21736;-67
2022/01/19 07:45:34;;;;;;;8.70;3.87;;;2.80;70.80;;;;;;2375186;53;21386;-68
2022/01/19 07:48:00;;;;;;;12.57;5.78;;;2.80;70.90;;;;;;2373145;53;21010;-68
2022/01/19 07:50:26;;;;;;;10.98;4.93;;;2.80;71.00;;;;;;2372793;54;21458;-69
2022/01/19 07:52:53;;;;;;;8.57;3.95;;;2.80;71.00;;;;;;2484065;52;21552;-70
2022/01/19 07:55:19;;;;;;;9.25;4.70;;;2.80;70.90;;;;;;2372238;54;20981;-67
2022/01/19 07:57:49;;;;;;;12.13;5.55;;;2.80;70.80;;;;;;2371707;54;20942;-68
2022/01/19 08:00:16;;;;;;;10.27;4.72;;;2.70;70.80;;;;;;2372258;54;20989;-68
2022/01/19 08:02:43;;;;;;;9.07;4.22;;;2.80;71.00;;;;;;2372158;54;20962;-69
2022/01/19 08:05:10;;;;;;;9.57;4.72;;;2.70;71.10;;;;;;2372599;54;20989;-67
2022/01/19 08:07:36;;;;;;;10.35;5.07;;;2.80;71.30;;;;;;2371590;53;20955;-69
2022/01/19 08:10:06;;;;;;;11.65;5.10;;;2.80;71.40;;;;;;2372338;54;20982;-65
2022/01/19 08:12:32;;;;;;;10.75;5.05;;;2.80;71.50;;;;;;2376138;54;20946;-65
2022/01/19 08:14:59;;;;;;;11.88;5.85;;;2.80;71.60;;;;;;2371322;54;21026;-68
2022/01/19 08:17:28;;;;;;;12.60;5.85;;;2.80;71.70;;;;;;2380497;52;21029;-66
2022/01/19 08:19:55;;;;;;;13.95;6.22;;;2.90;71.90;;;;;;2370938;53;21867;-67
2022/01/19 08:22:21;;;;;;;10.70;5.40;;;2.90;71.90;;;;;;2372317;53;20934;-65
2022/01/19 08:24:49;;;;;;;12.88;6.25;;;2.90;72.00;;;;;;2372338;53;20961;-67
2022/01/19 08:27:15;;;;;;;15.60;8.05;;;2.90;72.10;;;;;;2351761;53;21515;-66
2022/01/19 08:29:42;;;;;;;12.77;6.20;;;3.00;72.20;;;;;;2357935;52;20932;-65
2022/01/19 08:32:09;;;;;;;22.48;9.55;;;3.00;72.30;;;;;;2367603;53;21000;-68
2022/01/19 08:34:57;;;;;;;27.92;11.02;;;3.00;72.40;;;;;;2371594;54;21057;-67
2022/01/19 08:37:23;;;;;;;27.85;11.65;;;3.10;72.40;;;;;;2371886;54;20946;-65
2022/01/19 08:39:50;;;;;;;34.75;11.93;;;3.10;72.50;;;;;;2372339;53;21002;-68
2022/01/19 08:42:17;;;;;;;24.15;10.13;;;3.10;72.50;;;;;;2495391;52;20931;-66
2022/01/19 08:44:43;;;;;;;22.70;10.27;;;3.20;72.60;;;;;;2402610;52;20930;-66
2022/01/19 08:47:09;;;;;;;20.20;8.88;;;3.20;72.70;;;;;;2372263;54;20954;-66
2022/01/19 08:49:51;;;;;;;18.23;8.73;;;3.30;72.80;;;;;;2371825;54;21534;-68
2022/01/19 08:52:18;;;;;;;16.45;7.47;;;3.30;72.80;;;;;;2372476;53;21378;-68
2022/01/19 08:54:45;;;;;;;17.42;8.60;;;3.30;72.80;;;;;;2624787;52;21710;-67
2022/01/19 08:57:12;;;;;;;17.45;8.90;;;3.40;73.00;;;;;;2357400;53;20988;-67
2022/01/19 08:59:41;;;;;;;16.75;8.07;;;3.40;73.10;;;;;;2418036;52;20942;-67
2022/01/19 09:02:08;;;;;;;14.98;7.60;;;3.50;73.20;;;;;;2372560;53;20954;-67
2022/01/19 09:04:34;;;;;;;14.15;6.10;;;3.50;73.30;;;;;;2600998;52;20993;-66
2022/01/19 09:07:00;;;;;;;13.57;6.97;;;3.60;73.40;;;;;;2433881;52;20918;-68
2022/01/19 09:09:30;;;;;;;12.73;7.12;;;3.60;73.50;;;;;;2371718;54;21010;-69
2022/01/19 09:11:56;;;;;;;11.82;6.53;;;3.70;73.70;;;;;;2372518;54;20921;-66
2022/01/19 09:14:22;;;;;;;13.43;6.87;;;3.70;73.80;;;;;;2372030;54;20926;-68
2022/01/19 09:16:49;;;;;;;13.70;6.62;;;3.80;74.00;;;;;;2372123;54;20918;-68
2022/01/19 09:19:17;;;;;;;9.82;5.55;;;3.90;74.20;;;;;;2372008;54;21001;-68
2022/01/19 09:21:46;;;;;;;11.18;5.20;;;3.90;74.20;;;;;;2371125;54;21378;-66
2022/01/19 09:24:12;;;;;;;11.18;6.10;;;4.00;74.40;;;;;;2372931;53;21010;-69
2022/01/19 09:26:38;;;;;;;14.87;6.47;;;4.10;74.50;;;;;;2371834;54;20918;-67
2022/01/19 09:29:05;;;;;;;10.88;5.95;;;4.20;74.60;;;;;;2372292;54;20981;-66
2022/01/19 09:31:33;;;;;;;11.75;6.28;;;4.20;74.70;;;;;;2370751;53;20954;-68
2022/01/19 09:34:08;;;;;;;14.85;7.22;;;4.30;74.80;;;;;;2372247;53;20988;-67
2022/01/19 09:36:36;;;;;;;11.50;7.15;;;4.40;74.90;;;;;;2383792;52;20961;-67
2022/01/19 09:39:06;;;;;;;11.32;6.28;;;4.50;75.00;;;;;;2372371;53;20926;-65
2022/01/19 09:41:32;;;;;;;9.88;6.10;;;4.60;75.00;;;;;;2372236;53;21052;-68
2022/01/19 09:44:02;;;;;;;10.18;6.07;;;4.70;75.10;;;;;;2371299;54;20949;-69
2022/01/19 09:46:29;;;;;;;11.77;6.40;;;4.80;75.10;;;;;;2442177;52;20953;-67
2022/01/19 09:48:59;;;;;;;12.75;7.62;;;4.90;75.20;;;;;;2371876;53;20997;-68
2022/01/19 09:51:27;;;;;;;15.90;7.68;;;4.90;75.00;;;;;;2372548;53;21009;-66
2022/01/19 09:53:53;;;;;;;12.55;6.87;;;5.00;74.90;;;;;;2372238;54;21029;-69
2022/01/19 09:56:20;;;;;;;15.52;8.50;;;5.10;74.90;;;;;;2372264;53;20937;-68
2022/01/19 09:58:47;;;;;;;12.65;7.57;;;5.10;74.80;;;;;;2372025;53;20957;-67
2022/01/19 10:01:18;;;;;;;10.98;6.62;;;5.20;74.70;;;;;;2371987;53;21569;-68
2022/01/19 10:03:46;;;;;;;11.75;7.20;;;5.30;74.70;;;;;;2376053;53;20953;-68
2022/01/19 10:06:18;;;;;;;12.98;6.90;;;5.30;74.70;;;;;;2391640;52;20981;-69
2022/01/19 10:08:57;;;;;;;14.07;7.80;;;5.40;75.00;;;;;;2365241;53;21029;-68
2022/01/19 10:18:20;;;;;;;18.67;11.68;;;6.30;81.20;;;;;;2372574;54;20941;-66
2022/01/19 10:20:48;;;;;;;20.12;12.00;;;6.70;82.20;;;;;;2369620;54;20969;-66
2022/01/19 10:23:36;;;;;;;18.15;11.07;;;7.00;82.60;;;;;;2354818;53;20946;-70
2022/01/19 10:26:06;;;;;;;19.65;12.77;;;7.50;82.50;;;;;;2623085;52;20950;-66
2022/01/19 10:28:39;;;;;;;21.08;12.25;;;7.80;83.20;;;;;;2375423;53;21791;-68
2022/01/19 10:31:18;;;;;;;18.85;11.43;;;8.10;82.40;;;;;;2372435;53;20990;-68
2022/01/19 10:34:09;;;;;;;20.55;12.50;;;8.50;81.30;;;;;;2372308;53;21053;-71
2022/01/19 10:36:52;;;;;;;18.98;12.35;;;8.80;80.60;;;;;;2372926;53;21006;-67
2022/01/19 10:39:23;;;;;;;20.33;13.00;;;9.10;80.40;;;;;;2372367;54;21005;-66
2022/01/19 10:42:03;;;;;;;18.25;11.75;;;9.40;80.60;;;;;;2371545;53;21455;-70
2022/01/19 10:44:32;;;;;;;19.20;13.10;;;9.70;79.00;;;;;;2598459;52;20942;-66
2022/01/19 10:47:10;;;;;;;20.73;13.55;;;9.90;79.20;;;;;;2383377;52;20942;-67
2022/01/19 10:49:55;;;;;;;21.98;14.98;;;10.10;77.10;;;;;;2412321;53;21218;-68
2022/01/19 10:52:30;;;;;;;19.67;12.75;;;10.20;74.40;;;;;;2366591;53;20985;-70
2022/01/19 10:54:59;;;;;;;20.48;13.48;;;10.30;74.20;;;;;;2372230;54;20938;-69
2022/01/19 10:57:28;;;;;;;19.67;13.05;;;10.30;73.30;;;;;;2372134;54;21421;-68
2022/01/19 11:03:30;;;;;;;22.00;14.00;;;10.30;72.50;;;;;;2351494;53;20972;-70
2022/01/19 11:05:59;;;;;;;24.37;14.95;;;10.10;69.70;;;;;;2612883;52;20914;-69
2022/01/19 11:08:27;;;;;;;26.00;15.68;;;10.00;69.80;;;;;;2369400;53;21000;-68
2022/01/19 11:10:55;;;;;;;26.12;15.48;;;9.80;70.40;;;;;;2397600;53;20950;-68
2022/01/19 11:13:32;;;;;;;29.12;16.90;;;9.70;69.90;;;;;;2371453;53;20981;-67
2022/01/19 11:15:59;;;;;;;29.58;16.60;;;9.50;69.40;;;;;;2407809;52;20905;-67
2022/01/19 11:18:26;;;;;;;28.48;16.50;;;9.40;69.80;;;;;;2371728;53;21001;-69
2022/01/19 11:20:53;;;;;;;25.70;15.65;;;9.30;70.30;;;;;;2361775;54;20926;-67
2022/01/19 11:23:26;;;;;;;31.00;17.73;;;9.20;71.50;;;;;;2580792;52;21469;-68
2022/01/19 11:27:47;;;;;;;27.62;16.17;;;9.20;72.00;;;;;;2372349;53;21010;-69
2022/01/19 11:30:33;;;;;;;23.35;13.55;;;9.30;71.40;;;;;;2371665;54;20926;-69
2022/01/19 11:34:54;;;;;;;24.90;13.90;;;9.40;73.20;;;;;;2371934;53;20902;-68
2022/01/19 11:37:37;;;;;;;23.48;13.20;;;9.50;72.20;;;;;;2318293;54;20963;-71
2022/01/19 11:40:13;;;;;;;29.92;15.38;;;9.60;72.80;;;;;;2332366;54;20940;-67
2022/01/19 11:42:39;;;;;;;26.17;14.75;;;9.60;72.40;;;;;;2336133;54;21473;-69
2022/01/19 11:45:33;;;;;;;29.20;16.70;;;9.50;71.80;;;;;;2335920;53;20920;-69
2022/01/19 11:48:17;;;;;;;24.83;14.68;;;9.50;70.90;;;;;;2339316;54;20920;-66
2022/01/19 11:50:45;;;;;;;25.10;13.57;;;9.40;70.50;;;;;;2339502;54;20956;-68
2022/01/19 11:53:12;;;;;;;26.50;15.43;;;9.30;72.10;;;;;;2339185;54;21000;-66
2022/01/19 11:59:16;;;;;;;26.70;14.70;;;9.30;71.50;;;;;;2410498;53;20952;-68
2022/01/19 12:01:42;;;;;;;24.25;13.02;;;9.30;70.90;;;;;;2335295;54;20933;-67
2022/01/19 12:04:18;;;;;;;24.95;13.88;;;9.20;71.50;;;;;;2363658;52;21450;-67
2022/01/19 12:06:47;;;;;;;25.50;14.07;;;9.20;71.00;;;;;;2344320;53;20961;-66
2022/01/19 12:09:16;;;;;;;22.67;12.18;;;9.20;70.90;;;;;;2344526;54;20958;-68
2022/01/19 12:11:50;;;;;;;22.45;11.80;;;9.10;71.00;;;;;;2590665;53;20945;-66
2022/01/19 12:17:06;;;;;;;22.75;11.73;;;9.00;70.80;;;;;;2344118;54;21055;-67
2022/01/19 12:19:42;;;;;;;24.77;12.77;;;8.90;70.60;;;;;;2344244;54;20905;-70
2022/01/19 12:22:26;;;;;;;26.08;13.23;;;8.90;70.30;;;;;;2343804;54;21854;-68
2022/01/19 12:24:59;;;;;;;23.50;12.57;;;8.80;70.10;;;;;;2345725;54;20969;-68
2022/01/19 12:28:00;;;;;;;24.55;12.32;;;8.70;70.60;;;;;;2429850;52;20905;-70
2022/01/19 12:30:29;;;;;;;28.17;14.77;;;8.70;70.00;;;;;;2317105;54;20967;-66
2022/01/19 12:33:00;;;;;;;27.30;13.73;;;8.70;71.30;;;;;;2353218;53;20961;-66
2022/01/19 12:35:39;;;;;;;24.85;13.45;;;8.60;71.60;;;;;;2355989;54;20915;-66
2022/01/19 12:38:07;;;;;;;27.35;15.00;;;8.60;71.70;;;;;;2344533;54;20934;-68
2022/01/19 12:40:44;;;;;;;28.98;15.45;;;8.70;72.40;;;;;;2591247;53;20916;-67
2022/01/19 12:43:47;;;;;;;26.45;14.30;;;8.70;72.20;;;;;;2340552;53;20927;-69
2022/01/19 12:46:36;;;;;;;26.67;14.77;;;8.70;72.70;;;;;;2344308;53;20934;-66
2022/01/19 12:49:27;;;;;;;30.70;16.62;;;8.80;72.20;;;;;;2345006;54;21530;-67
2022/01/19 12:51:53;;;;;;;38.33;20.15;;;8.80;72.20;;;;;;2344006;54;20902;-69
2022/01/19 12:54:25;;;;;;;35.40;19.75;;;8.90;73.30;;;;;;2344159;55;20932;-66
2022/01/19 12:57:02;;;;;;;27.75;15.40;;;9.00;73.70;;;;;;2344147;53;21016;-66
2022/01/19 12:59:31;;;;;;;25.55;15.15;;;9.10;74.00;;;;;;2399158;53;20958;-68
2022/01/19 13:01:59;;;;;;;27.50;14.82;;;9.20;74.30;;;;;;2344129;55;20998;-66
2022/01/19 13:04:30;;;;;;;26.12;15.15;;;9.40;74.40;;;;;;2343936;55;20979;-69
2022/01/19 13:07:21;;;;;;;24.08;13.43;;;9.50;73.80;;;;;;2342431;54;21020;-66
2022/01/19 13:10:24;;;;;;;25.02;14.00;;;9.60;72.90;;;;;;2344278;55;20938;-67
2022/01/19 13:12:57;;;;;;;23.05;12.30;;;9.70;72.10;;;;;;2590514;53;20919;-67
2022/01/19 13:15:24;;;;;;;22.92;13.18;;;9.70;72.20;;;;;;2344113;55;20950;-70
2022/01/19 13:17:52;;;;;;;24.58;13.23;;;9.60;71.60;;;;;;2412552;53;20919;-68
2022/01/19 13:20:22;;;;;;;23.40;12.95;;;9.70;72.00;;;;;;2344413;53;20999;-69
2022/01/19 13:22:51;;;;;;;21.30;12.52;;;9.70;71.60;;;;;;2340291;53;20931;-66
2022/01/19 13:25:25;;;;;;;24.27;13.00;;;9.70;72.00;;;;;;2527636;52;20972;-66
2022/01/19 13:27:55;;;;;;;21.23;12.73;;;9.70;72.10;;;;;;2356926;54;21749;-68
2022/01/19 13:30:23;;;;;;;23.02;13.62;;;9.80;72.70;;;;;;2344265;53;20914;-68
2022/01/19 13:32:53;;;;;;;24.45;13.50;;;9.90;73.00;;;;;;2345094;53;20954;-68
2022/01/19 13:35:19;;;;;;;23.30;13.73;;;10.00;71.60;;;;;;2365056;54;21014;-67
2022/01/19 13:37:51;;;;;;;27.45;14.50;;;10.10;72.00;;;;;;2550352;52;21452;-67
2022/01/19 13:40:30;;;;;;;22.25;13.68;;;10.20;72.00;;;;;;2367313;53;20919;-66
2022/01/19 13:42:59;;;;;;;25.98;14.10;;;10.30;71.50;;;;;;2395718;52;21016;-66
2022/01/19 13:45:38;;;;;;;23.87;14.05;;;10.40;71.80;;;;;;2353553;54;21393;-68
2022/01/19 13:48:28;;;;;;;20.90;12.65;;;10.40;70.80;;;;;;2344742;53;21352;-66
2022/01/19 13:51:09;;;;;;;21.27;12.40;;;10.50;71.00;;;;;;2343310;54;20969;-68
2022/01/19 13:53:39;;;;;;;23.02;12.27;;;10.50;69.40;;;;;;2330549;54;20923;-67
2022/01/19 13:56:10;;;;;;;19.98;12.32;;;10.40;69.10;;;;;;2346526;54;20941;-68
2022/01/19 13:59:00;;;;;;;22.83;12.82;;;10.40;68.20;;;;;;2325747;54;21308;-67
2022/01/19 14:01:50;;;;;;;22.65;13.57;;;10.30;67.10;;;;;;2344099;54;20971;-69
2022/01/19 14:04:18;;;;;;;21.48;12.07;;;10.20;67.10;;;;;;2344097;53;20965;-66
2022/01/19 14:06:45;;;;;;;20.85;12.15;;;10.00;67.50;;;;;;2343549;53;21006;-69
2022/01/19 14:09:31;;;;;;;20.60;11.70;;;9.90;68.50;;;;;;2338599;53;20988;-69
2022/01/19 14:12:21;;;;;;;20.73;11.98;;;9.80;68.40;;;;;;2359870;53;20963;-66
2022/01/19 14:14:58;;;;;;;20.02;11.52;;;9.70;68.90;;;;;;2366736;54;20931;-66
2022/01/19 14:17:33;;;;;;;21.77;11.90;;;9.60;68.70;;;;;;2346331;53;20965;-67
2022/01/19 14:19:59;;;;;;;20.55;11.27;;;9.50;68.70;;;;;;2406353;52;24826;-69
2022/01/19 14:22:29;;;;;;;19.37;10.75;;;9.40;69.10;;;;;;2366351;53;21403;-67
2022/01/19 14:25:06;;;;;;;19.40;11.05;;;9.30;69.20;;;;;;2366675;54;20980;-66
2022/01/19 14:27:53;;;;;;;20.33;12.48;;;9.30;68.90;;;;;;2366895;54;21015;-66
2022/01/19 14:30:24;;;;;;;20.45;12.07;;;9.20;69.20;;;;;;2366971;54;20971;-66
2022/01/19 14:33:16;;;;;;;20.48;11.80;;;9.10;69.50;;;;;;2367471;53;20987;-68
2022/01/19 14:35:52;;;;;;;18.42;10.73;;;9.10;69.40;;;;;;2367036;53;21019;-67
2022/01/19 14:38:32;;;;;;;24.73;15.25;;;9.00;69.60;;;;;;2356308;54;20944;-68
2022/01/19 14:41:26;;;;;;;22.92;12.60;;;9.00;69.40;;;;;;2359245;53;20920;-67
2022/01/19 14:44:08;;;;;;;20.85;11.48;;;9.00;69.80;;;;;;2366914;54;21395;-69